Strona główna
METAR-TAF:

METAR-TAF

Lotnisko :

Harrisburg, Pensylwania, Stany Zjednoczone

Szerokość geograficzna: 40-13-02N, Długość geograficzna: 076-51-05W, wysokość: 106 m

Aktualna obserwacja pogody

Raport powstał 1 godzina i 4 minut temu, godzina 05:56 UTC
Cisza
Temperatura -6°C
Wilgotność 79%
Ciśnienie 1030 hPa
Widzialność: 16.1 km
bezchmurnie

METAR: KCXY 230556Z AUTO 00000KT 10SM CLR M06/M09 A3041 RMK AO2 SLP304 T10561094 11011 21056 58008

czas: 02:00 (07:00 UTC)


TAF: brakujący

Obserwacja i prognoza pogody dla ponad 4000 lotnisk (raport METAR i TAF).

Dostępne stacje oznaczono żółtymi i czerwonymi punktami na mapie.

Najedź kursorem aby zobaczyć nazwę stacji.

Kliknij aby zobaczyć obserwacje i prognozy pogody.

Aby zmienić mapę: kliknij na zielony przycisk z czarnym krzyżykiem, aby powiększyć; na zielony przycisk z myślnikiem, aby pomniejszyć; na zielone strzałki, aby przejść do map sąsiednich.


METAR-TAF: